Time;durP1;ratioP1;P1;durP2;ratioP2;P2;SDS_P1;SDS_P2;PMS_P1;PMS_P2;Temp;Humidity;BMP_temperature;BMP_pressure;BME280_temperature;BME280_humidity;BME280_pressure;Samples;Min_cycle;Max_cycle;Signal;HPM_P1;HPM_P2
2022/05/03 00:02:41;;;;;;;12.50;11.20;;;15.80;99.90;;;;;;5016090;28;20450;-73
2022/05/03 00:05:11;;;;;;;13.13;11.80;;;15.80;99.90;;;;;;5012956;28;20860;-72
2022/05/03 00:07:52;;;;;;;13.40;11.90;;;15.70;99.90;;;;;;5015689;28;20855;-74
2022/05/03 00:10:28;;;;;;;12.40;10.90;;;16.00;99.90;;;;;;5014695;28;20461;-73
2022/05/03 00:13:02;;;;;;;13.53;12.07;;;16.30;99.90;;;;;;5010950;28;20982;-73
2022/05/03 00:15:31;;;;;;;15.50;12.10;;;16.00;99.90;;;;;;5018452;28;20446;-73
2022/05/03 00:17:57;;;;;;;14.70;11.47;;;16.20;99.90;;;;;;5011223;28;20546;-73
2022/05/03 00:20:24;;;;;;;12.10;10.97;;;15.60;99.90;;;;;;5009381;28;20448;-73
2022/05/03 00:22:50;;;;;;;13.27;11.97;;;15.80;99.90;;;;;;5011680;28;20455;-73
2022/05/03 00:25:16;;;;;;;14.97;12.80;;;15.60;99.90;;;;;;5012774;28;20448;-75
2022/05/03 00:27:42;;;;;;;17.50;12.37;;;15.80;99.90;;;;;;5016264;28;20643;-73
2022/05/03 00:30:09;;;;;;;12.80;11.50;;;16.00;99.90;;;;;;5011834;28;20427;-75
2022/05/03 00:32:35;;;;;;;14.10;12.03;;;16.00;99.90;;;;;;5015557;28;20481;-73
2022/05/03 00:35:02;;;;;;;13.00;11.70;;;16.10;99.90;;;;;;5014015;28;20462;-72
2022/05/03 00:37:28;;;;;;;12.50;11.20;;;15.90;99.90;;;;;;5015153;28;20458;-72
2022/05/03 00:39:54;;;;;;;13.20;11.53;;;15.60;99.90;;;;;;5008509;28;20440;-73
2022/05/03 00:42:22;;;;;;;12.03;10.97;;;15.80;99.90;;;;;;5016900;28;20456;-72
2022/05/03 00:44:58;;;;;;;11.93;10.57;;;15.60;99.90;;;;;;5015311;28;20515;-72
2022/05/03 00:47:31;;;;;;;12.70;11.30;;;15.80;99.90;;;;;;5009760;28;20617;-72
2022/05/03 00:50:13;;;;;;;12.23;11.03;;;15.40;99.90;;;;;;5011316;28;20997;-72
2022/05/03 00:52:54;;;;;;;12.87;11.57;;;15.10;99.90;;;;;;5011643;28;20880;-73
2022/05/03 00:55:23;;;;;;;12.73;11.20;;;15.10;99.90;;;;;;5007360;28;20437;-72
2022/05/03 00:58:06;;;;;;;13.13;10.90;;;15.30;99.90;;;;;;5012693;28;20506;-72
2022/05/03 01:00:35;;;;;;;12.60;11.30;;;15.20;99.90;;;;;;5010518;28;21324;-73
2022/05/03 01:03:09;;;;;;;14.10;12.60;;;15.20;99.90;;;;;;5009466;28;20471;-73
2022/05/03 01:05:37;;;;;;;12.40;11.30;;;14.90;99.90;;;;;;5027080;28;20502;-72
2022/05/03 01:08:10;;;;;;;12.40;11.20;;;15.00;99.90;;;;;;5011465;28;20474;-73
2022/05/03 01:10:48;;;;;;;11.67;10.60;;;15.00;99.90;;;;;;5010371;28;20458;-72
2022/05/03 01:13:32;;;;;;;12.67;11.40;;;15.00;99.90;;;;;;5010151;28;20490;-73
2022/05/03 01:16:17;;;;;;;12.20;11.10;;;14.90;99.90;;;;;;5010775;28;20423;-73
2022/05/03 01:19:10;;;;;;;12.33;11.17;;;15.30;99.90;;;;;;5008798;28;20489;-72
2022/05/03 01:21:57;;;;;;;13.10;11.70;;;15.50;99.90;;;;;;5012367;28;21019;-72
2022/05/03 01:25:04;;;;;;;12.57;11.27;;;15.50;99.90;;;;;;5015646;28;20439;-72
2022/05/03 01:27:52;;;;;;;12.83;10.73;;;15.50;99.90;;;;;;5010435;28;20485;-72
2022/05/03 01:30:18;;;;;;;13.10;11.70;;;15.20;99.90;;;;;;5014562;28;21020;-73
2022/05/03 01:32:44;;;;;;;12.37;11.17;;;15.00;99.90;;;;;;5011354;28;20502;-72
2022/05/03 01:35:13;;;;;;;15.33;11.77;;;15.20;99.90;;;;;;5009544;28;20187;-73
2022/05/03 01:38:01;;;;;;;13.17;11.77;;;15.00;99.90;;;;;;5013546;28;23728;-72
2022/05/03 01:40:29;;;;;;;12.17;10.97;;;14.70;99.90;;;;;;5011761;28;20495;-73
2022/05/03 01:42:58;;;;;;;16.50;12.20;;;14.90;99.90;;;;;;5011821;28;20512;-72
2022/05/03 01:45:56;;;;;;;14.17;11.30;;;15.00;99.90;;;;;;5011531;28;20538;-73
2022/05/03 01:51:44;;;;;;;13.30;12.10;;;14.70;99.90;;;;;;5012694;28;20492;-72
2022/05/03 01:54:45;;;;;;;12.40;11.20;;;14.80;99.90;;;;;;5009669;28;20538;-73
2022/05/03 01:57:31;;;;;;;13.40;12.00;;;14.80;99.90;;;;;;5026460;28;20469;-72
2022/05/03 02:00:11;;;;;;;12.10;10.90;;;14.90;99.90;;;;;;5013155;28;20430;-73
2022/05/03 02:02:56;;;;;;;12.57;11.27;;;14.90;99.90;;;;;;5018714;28;20454;-73
2022/05/03 02:05:50;;;;;;;13.83;12.03;;;14.80;99.90;;;;;;5015767;28;20518;-73
2022/05/03 02:08:24;;;;;;;13.00;11.70;;;14.50;99.90;;;;;;5015576;28;20491;-74
2022/05/03 02:10:55;;;;;;;12.53;11.30;;;14.70;99.90;;;;;;5014466;28;20431;-73
2022/05/03 02:16:30;;;;;;;12.30;11.10;;;14.60;99.90;;;;;;5015488;28;20446;-72
2022/05/03 02:19:18;;;;;;;12.40;11.10;;;14.70;99.90;;;;;;5015503;28;21046;-74
2022/05/03 02:22:18;;;;;;;15.23;12.03;;;14.40;99.90;;;;;;5015169;28;20435;-74
2022/05/03 02:25:02;;;;;;;12.77;11.50;;;14.50;99.90;;;;;;5017821;28;20471;-76
2022/05/03 02:27:31;;;;;;;13.40;11.50;;;14.40;99.90;;;;;;5014276;28;20467;-72
2022/05/03 02:29:58;;;;;;;13.43;12.10;;;14.70;99.90;;;;;;5016481;28;20459;-72
2022/05/03 02:32:56;;;;;;;13.20;12.00;;;14.80;99.90;;;;;;5012068;28;20459;-74
2022/05/03 02:35:23;;;;;;;12.97;11.80;;;14.60;99.90;;;;;;4997223;28;20468;-76
2022/05/03 02:38:01;;;;;;;12.17;10.97;;;14.90;99.90;;;;;;5021401;28;20439;-73
2022/05/03 02:40:27;;;;;;;13.03;11.20;;;15.10;99.90;;;;;;5014759;28;20976;-73
2022/05/03 02:42:55;;;;;;;13.10;11.50;;;14.70;99.90;;;;;;5018852;28;20927;-73
2022/05/03 02:45:21;;;;;;;11.90;10.80;;;14.70;99.90;;;;;;5021939;28;21189;-71
2022/05/03 02:48:16;;;;;;;13.67;11.27;;;14.70;99.90;;;;;;5012224;28;20511;-71
2022/05/03 02:50:53;;;;;;;12.00;10.80;;;14.70;99.90;;;;;;5014287;28;20234;-73
2022/05/03 02:53:37;;;;;;;13.07;11.80;;;14.60;99.90;;;;;;5014121;28;20463;-72
2022/05/03 02:56:16;;;;;;;14.43;11.37;;;14.60;99.90;;;;;;5013148;28;21255;-72
2022/05/03 02:59:16;;;;;;;12.60;11.30;;;14.30;99.90;;;;;;5012722;28;20459;-73
2022/05/03 03:02:04;;;;;;;12.87;11.27;;;14.50;99.90;;;;;;5012600;28;20814;-75
2022/05/03 03:05:02;;;;;;;13.67;12.27;;;14.10;99.90;;;;;;5014338;28;20454;-73
2022/05/03 03:07:40;;;;;;;13.50;12.20;;;13.60;99.90;;;;;;5015801;28;20879;-74
2022/05/03 03:10:12;;;;;;;12.03;10.93;;;13.40;99.90;;;;;;5012673;28;20432;-73
2022/05/03 03:12:54;;;;;;;18.00;10.73;;;13.70;99.90;;;;;;5033341;28;20462;-75
2022/05/03 03:15:27;;;;;;;13.53;11.27;;;14.10;99.90;;;;;;5018399;28;20440;-75
2022/05/03 03:17:54;;;;;;;12.60;11.30;;;13.70;99.90;;;;;;5014145;28;20466;-75
2022/05/03 03:20:25;;;;;;;12.10;10.90;;;13.40;99.90;;;;;;5014879;28;20435;-74
2022/05/03 03:22:51;;;;;;;12.77;11.57;;;13.70;99.90;;;;;;5014064;28;21008;-72
2022/05/03 03:25:19;;;;;;;13.27;12.00;;;14.00;99.90;;;;;;5016037;28;20437;-75
2022/05/03 03:27:50;;;;;;;13.00;11.50;;;14.10;99.90;;;;;;5016123;28;20765;-75
2022/05/03 03:30:17;;;;;;;13.83;11.70;;;13.90;99.90;;;;;;5016092;28;21144;-72
2022/05/03 03:32:47;;;;;;;11.40;10.30;;;13.70;99.90;;;;;;5031688;28;20458;-74
2022/05/03 03:35:14;;;;;;;12.90;11.43;;;13.70;99.90;;;;;;5011009;28;21427;-73
2022/05/03 03:37:44;;;;;;;12.43;11.23;;;13.70;99.90;;;;;;5014986;28;20431;-73
2022/05/03 03:40:11;;;;;;;12.27;11.07;;;13.60;99.90;;;;;;5012622;28;20434;-75
2022/05/03 03:42:37;;;;;;;12.30;11.13;;;13.70;99.90;;;;;;5012690;28;20820;-73
2022/05/03 03:45:07;;;;;;;13.47;12.10;;;13.70;99.90;;;;;;5014433;28;20443;-74
2022/05/03 03:47:37;;;;;;;12.23;11.00;;;13.70;99.90;;;;;;5011477;28;20548;-75
2022/05/03 03:50:04;;;;;;;12.97;11.67;;;14.00;99.90;;;;;;5016244;28;20701;-73
2022/05/03 03:52:32;;;;;;;12.00;10.70;;;14.00;99.90;;;;;;5007889;28;20463;-76
2022/05/03 03:54:58;;;;;;;12.13;11.03;;;13.90;99.90;;;;;;5015056;28;20442;-74
2022/05/03 03:57:24;;;;;;;13.13;11.70;;;13.90;99.90;;;;;;5012282;28;20533;-76
2022/05/03 03:59:50;;;;;;;13.37;11.97;;;13.90;99.90;;;;;;5015126;28;20439;-73
2022/05/03 04:02:16;;;;;;;12.10;11.00;;;14.20;99.90;;;;;;5028409;28;20467;-74
2022/05/03 04:04:44;;;;;;;12.43;11.33;;;14.00;99.90;;;;;;5013475;28;20756;-76
2022/05/03 04:07:13;;;;;;;12.70;11.50;;;14.40;99.90;;;;;;5014255;28;20210;-72
2022/05/03 04:09:39;;;;;;;13.33;11.90;;;14.10;99.90;;;;;;5014543;28;20439;-73
2022/05/03 04:12:05;;;;;;;14.20;10.87;;;14.10;99.90;;;;;;5012435;28;20501;-75
2022/05/03 04:14:34;;;;;;;16.93;11.67;;;14.40;99.90;;;;;;5013458;28;20188;-76
2022/05/03 04:17:00;;;;;;;13.57;12.37;;;14.20;99.90;;;;;;5031331;28;20583;-75
2022/05/03 04:19:26;;;;;;;12.50;11.40;;;14.30;99.90;;;;;;5011662;28;20435;-75
2022/05/03 04:21:52;;;;;;;12.87;11.67;;;14.70;99.90;;;;;;5026047;28;20489;-72
2022/05/03 04:24:18;;;;;;;13.90;11.10;;;14.80;99.90;;;;;;5013646;28;20296;-73
2022/05/03 04:26:43;;;;;;;11.17;9.97;;;14.90;99.90;;;;;;5027623;28;20604;-72
2022/05/03 04:29:09;;;;;;;11.77;10.67;;;15.00;99.90;;;;;;5010941;28;20476;-74
2022/05/03 04:31:36;;;;;;;13.43;11.37;;;14.90;99.90;;;;;;5026971;28;20242;-73
2022/05/03 04:34:03;;;;;;;11.43;10.33;;;15.00;99.90;;;;;;5012392;28;20253;-74
2022/05/03 04:36:30;;;;;;;12.87;11.13;;;14.80;99.90;;;;;;5013797;28;20447;-72
2022/05/03 04:38:56;;;;;;;11.93;10.90;;;14.60;99.90;;;;;;5014979;28;20450;-74
2022/05/03 04:41:23;;;;;;;14.97;12.20;;;14.40;99.90;;;;;;5011672;28;20459;-73
2022/05/03 04:43:49;;;;;;;12.40;11.13;;;14.10;99.90;;;;;;5006618;28;20460;-72
2022/05/03 04:46:15;;;;;;;14.47;11.80;;;14.50;99.90;;;;;;5028787;28;20440;-72
2022/05/03 04:48:41;;;;;;;12.40;11.27;;;14.40;99.90;;;;;;5006735;28;20468;-75
2022/05/03 04:51:21;;;;;;;13.70;11.50;;;14.10;99.90;;;;;;5012319;28;20196;-74
2022/05/03 04:53:47;;;;;;;11.47;10.37;;;14.30;99.90;;;;;;5013655;28;21096;-73
2022/05/03 04:56:18;;;;;;;11.57;10.47;;;14.50;99.90;;;;;;5013008;28;20446;-74
2022/05/03 04:58:44;;;;;;;12.20;10.90;;;14.50;99.90;;;;;;5015056;28;20476;-72
2022/05/03 05:01:09;;;;;;;11.27;10.23;;;14.60;99.90;;;;;;5009986;28;20456;-72
2022/05/03 05:03:35;;;;;;;12.67;11.40;;;14.30;99.90;;;;;;5026039;28;20204;-73
2022/05/03 05:06:00;;;;;;;11.67;10.47;;;14.30;99.90;;;;;;5014227;28;20280;-72
2022/05/03 05:08:26;;;;;;;13.70;12.03;;;14.30;99.90;;;;;;5012026;28;20244;-74
2022/05/03 05:10:52;;;;;;;12.47;11.17;;;14.60;99.90;;;;;;5012228;28;20609;-76
2022/05/03 05:13:17;;;;;;;12.50;11.13;;;14.40;99.90;;;;;;5010309;28;20200;-76
2022/05/03 05:15:43;;;;;;;12.90;10.23;;;14.50;99.90;;;;;;5009693;28;20188;-74
2022/05/03 05:18:08;;;;;;;10.83;9.83;;;14.50;99.90;;;;;;5012384;28;20998;-73
2022/05/03 05:20:34;;;;;;;13.50;12.20;;;14.70;99.90;;;;;;5010426;28;20185;-73
2022/05/03 05:23:00;;;;;;;13.47;12.27;;;14.70;99.90;;;;;;5013062;28;20257;-73
2022/05/03 05:25:26;;;;;;;12.90;11.60;;;14.60;99.90;;;;;;5011831;28;20189;-73
2022/05/03 05:27:52;;;;;;;13.83;12.60;;;14.50;99.90;;;;;;5014127;28;20475;-72
2022/05/03 05:30:17;;;;;;;11.90;10.60;;;14.40;99.90;;;;;;5010343;28;20191;-75
2022/05/03 05:32:43;;;;;;;14.50;11.10;;;14.50;99.90;;;;;;5010619;28;20231;-73
2022/05/03 05:35:10;;;;;;;12.93;11.30;;;14.70;99.90;;;;;;5013746;28;20206;-76
2022/05/03 05:37:36;;;;;;;15.50;11.20;;;14.60;99.90;;;;;;5009931;28;20557;-74
2022/05/03 05:40:02;;;;;;;12.17;10.97;;;14.40;99.90;;;;;;5013273;28;20439;-74
2022/05/03 05:42:27;;;;;;;11.53;10.33;;;14.70;99.90;;;;;;5011914;28;20224;-76
2022/05/03 05:44:53;;;;;;;11.70;10.50;;;14.60;99.90;;;;;;5011709;28;20313;-72
2022/05/03 05:47:18;;;;;;;11.40;10.20;;;14.90;99.90;;;;;;5013272;28;20208;-74
2022/05/03 05:49:44;;;;;;;12.60;11.30;;;14.80;99.90;;;;;;5009655;28;20180;-75
2022/05/03 05:54:57;;;;;;;11.50;10.40;;;15.00;99.90;;;;;;5011260;28;20231;-75
2022/05/03 05:57:23;;;;;;;14.13;10.63;;;15.20;99.90;;;;;;5015847;28;20439;-73
2022/05/03 05:59:49;;;;;;;15.27;11.93;;;15.10;99.90;;;;;;5010049;28;20424;-73
2022/05/03 06:02:14;;;;;;;11.07;9.87;;;15.10;99.90;;;;;;5016357;28;20197;-73
2022/05/03 06:04:40;;;;;;;11.10;9.73;;;15.20;99.90;;;;;;5015830;28;20263;-73
2022/05/03 06:07:06;;;;;;;11.73;10.63;;;15.30;99.90;;;;;;5013542;28;20181;-74
2022/05/03 06:09:33;;;;;;;12.00;10.70;;;15.30;99.90;;;;;;5012396;28;20188;-73
2022/05/03 06:11:58;;;;;;;12.13;10.40;;;15.10;99.90;;;;;;5022231;28;20196;-74
2022/05/03 06:14:24;;;;;;;11.20;10.10;;;15.30;99.90;;;;;;5011820;28;20482;-73
2022/05/03 06:16:51;;;;;;;10.93;9.87;;;15.30;99.90;;;;;;5009411;28;20272;-76
2022/05/03 06:19:17;;;;;;;11.00;9.40;;;15.40;99.90;;;;;;5011903;28;20876;-72
2022/05/03 06:21:43;;;;;;;13.80;10.70;;;15.40;99.90;;;;;;5012545;28;20454;-76
2022/05/03 06:24:08;;;;;;;10.37;9.27;;;15.50;99.90;;;;;;5019955;28;20546;-76
2022/05/03 06:26:35;;;;;;;14.97;10.40;;;15.50;99.90;;;;;;5008764;28;20184;-74
2022/05/03 06:29:12;;;;;;;11.20;10.10;;;15.60;99.90;;;;;;5012360;28;20277;-75
2022/05/03 06:31:38;;;;;;;14.50;10.70;;;15.50;99.90;;;;;;5011520;28;20431;-75
2022/05/03 06:34:07;;;;;;;11.53;10.43;;;15.60;99.90;;;;;;5008736;28;20454;-74
2022/05/03 06:36:35;;;;;;;11.17;9.97;;;15.60;99.90;;;;;;5014458;28;20434;-77
2022/05/03 06:39:01;;;;;;;12.00;10.90;;;15.60;99.90;;;;;;5007165;28;21167;-74
2022/05/03 06:41:27;;;;;;;24.73;21.17;;;15.80;99.90;;;;;;5011735;28;20435;-74
2022/05/03 06:43:53;;;;;;;14.63;12.90;;;15.80;99.90;;;;;;5013477;28;20571;-74
2022/05/03 06:46:20;;;;;;;14.50;13.00;;;15.80;99.90;;;;;;5031992;28;20275;-76
2022/05/03 06:48:45;;;;;;;13.67;12.37;;;15.70;99.90;;;;;;5016753;28;20583;-73
2022/05/03 06:51:11;;;;;;;14.20;10.93;;;15.70;99.90;;;;;;5015138;28;20431;-74
2022/05/03 06:53:36;;;;;;;13.00;11.70;;;15.90;99.90;;;;;;5011241;28;20197;-75
2022/05/03 06:56:02;;;;;;;15.87;11.43;;;16.00;99.90;;;;;;5010732;28;20251;-76
2022/05/03 06:58:28;;;;;;;14.00;11.50;;;16.10;99.90;;;;;;5011517;28;20215;-74
2022/05/03 07:00:56;;;;;;;11.83;10.73;;;16.20;99.90;;;;;;5013256;28;20195;-73
2022/05/03 07:03:22;;;;;;;13.03;11.60;;;16.10;99.90;;;;;;5014435;28;20216;-74
2022/05/03 07:05:48;;;;;;;13.93;11.57;;;16.30;99.90;;;;;;5019738;28;20440;-75
2022/05/03 07:08:14;;;;;;;12.80;11.50;;;16.40;99.90;;;;;;5023572;28;20467;-78
2022/05/03 07:10:41;;;;;;;11.43;10.20;;;16.40;99.90;;;;;;5019038;28;20256;-74
2022/05/03 07:13:12;;;;;;;9.83;8.77;;;16.50;99.90;;;;;;5019707;28;20189;-74
2022/05/03 07:15:38;;;;;;;11.63;10.53;;;16.50;99.90;;;;;;5015879;28;20454;-74
2022/05/03 07:23:43;;;;;;;11.50;10.47;;;16.70;99.90;;;;;;5015676;28;20833;-75
2022/05/03 07:26:09;;;;;;;12.47;11.30;;;16.80;99.90;;;;;;5014149;28;20424;-74
2022/05/03 07:28:34;;;;;;;11.67;10.47;;;16.80;99.90;;;;;;5032123;28;20215;-75
2022/05/03 07:31:00;;;;;;;12.13;11.03;;;16.70;99.90;;;;;;5016888;28;20173;-75
2022/05/03 07:33:26;;;;;;;11.80;10.70;;;16.70;99.90;;;;;;5017635;28;20197;-74
2022/05/03 07:35:52;;;;;;;11.13;10.03;;;16.90;99.90;;;;;;5015669;28;20462;-75
2022/05/03 07:38:17;;;;;;;11.03;9.93;;;17.00;99.90;;;;;;5017084;28;20267;-72
2022/05/03 07:40:43;;;;;;;11.87;10.77;;;17.10;99.90;;;;;;5016133;28;20203;-73
2022/05/03 07:43:08;;;;;;;11.20;10.10;;;17.10;99.90;;;;;;5019005;28;20232;-72
2022/05/03 07:45:34;;;;;;;12.30;11.00;;;17.10;99.90;;;;;;5014653;28;20639;-74
2022/05/03 07:48:00;;;;;;;12.13;10.30;;;17.30;99.90;;;;;;5014292;28;20209;-74
2022/05/03 07:50:25;;;;;;;12.23;11.00;;;17.20;99.90;;;;;;5028846;28;20552;-74
2022/05/03 07:52:51;;;;;;;11.60;10.33;;;17.30;99.90;;;;;;5010777;28;20208;-74
2022/05/03 07:55:17;;;;;;;13.40;12.10;;;17.40;99.90;;;;;;5012196;28;20188;-74
2022/05/03 07:57:43;;;;;;;12.90;10.83;;;17.10;99.90;;;;;;5010636;28;20213;-73
2022/05/03 08:00:10;;;;;;;12.00;10.70;;;17.20;99.90;;;;;;5012375;28;21741;-74
2022/05/03 08:02:35;;;;;;;13.07;11.67;;;17.40;99.90;;;;;;5017283;28;20235;-75
2022/05/03 08:05:02;;;;;;;12.30;10.97;;;17.50;99.90;;;;;;5010323;28;20495;-73
2022/05/03 08:07:28;;;;;;;12.10;11.00;;;17.50;99.90;;;;;;5015745;28;20279;-73
2022/05/03 08:09:54;;;;;;;13.20;11.90;;;17.60;99.90;;;;;;5015484;28;20435;-73
2022/05/03 08:12:22;;;;;;;10.87;9.83;;;17.60;99.90;;;;;;5014133;28;20225;-73
2022/05/03 08:14:47;;;;;;;11.70;10.50;;;17.60;99.90;;;;;;5016993;28;20568;-74
2022/05/03 08:17:13;;;;;;;11.70;10.50;;;17.70;99.90;;;;;;5013398;28;20433;-74
2022/05/03 08:19:39;;;;;;;11.63;10.53;;;17.70;99.90;;;;;;5009671;28;20186;-73
2022/05/03 08:22:05;;;;;;;12.73;11.23;;;17.90;99.90;;;;;;5019217;28;20667;-72
2022/05/03 08:24:31;;;;;;;12.00;10.80;;;17.90;99.90;;;;;;5016272;28;20213;-73
2022/05/03 08:26:57;;;;;;;11.67;10.63;;;17.80;99.90;;;;;;5013419;28;20471;-73
2022/05/03 08:29:23;;;;;;;12.50;11.30;;;17.90;99.90;;;;;;5013806;28;20200;-73
2022/05/03 08:31:48;;;;;;;11.97;10.73;;;18.00;99.90;;;;;;5014039;28;20550;-73
2022/05/03 08:34:14;;;;;;;12.80;11.57;;;17.90;99.90;;;;;;5010658;28;20459;-72
2022/05/03 08:36:40;;;;;;;12.57;11.20;;;18.00;99.90;;;;;;5010627;28;20185;-74
2022/05/03 08:42:02;;;;;;;10.37;9.37;;;18.20;99.90;;;;;;5008103;28;20278;-74
2022/05/03 08:44:29;;;;;;;10.23;9.27;;;18.30;99.90;;;;;;5012202;28;20571;-73
2022/05/03 08:46:57;;;;;;;11.07;9.63;;;18.40;99.90;;;;;;5010331;28;20435;-73
2022/05/03 08:49:34;;;;;;;10.83;9.70;;;18.40;99.90;;;;;;5013777;28;20550;-73
2022/05/03 08:52:02;;;;;;;15.70;10.53;;;18.30;99.90;;;;;;5014395;28;20515;-74
2022/05/03 08:54:28;;;;;;;10.20;9.20;;;18.40;99.90;;;;;;5012599;28;20444;-73
2022/05/03 08:56:55;;;;;;;9.30;8.27;;;18.50;99.90;;;;;;5010854;28;20439;-73
2022/05/03 08:59:22;;;;;;;9.10;8.30;;;18.60;99.90;;;;;;5014194;28;20196;-73
2022/05/03 09:01:48;;;;;;;10.03;9.13;;;18.60;99.90;;;;;;5015049;28;20459;-74
2022/05/03 09:04:14;;;;;;;10.07;9.17;;;18.70;99.90;;;;;;5029826;28;20543;-73
2022/05/03 09:06:47;;;;;;;10.20;7.63;;;18.70;99.90;;;;;;5013794;28;20434;-73
2022/05/03 09:09:15;;;;;;;9.57;8.67;;;18.80;99.90;;;;;;5017427;28;20468;-74
2022/05/03 09:11:54;;;;;;;8.50;7.70;;;18.90;99.90;;;;;;5014200;28;20424;-74
2022/05/03 09:14:37;;;;;;;8.77;7.93;;;19.00;99.90;;;;;;5014572;28;20415;-73
2022/05/03 09:17:04;;;;;;;9.20;8.30;;;19.00;99.90;;;;;;5012363;28;20443;-73
2022/05/03 09:19:29;;;;;;;9.43;8.60;;;19.10;99.90;;;;;;5012586;28;20438;-74
2022/05/03 09:24:52;;;;;;;9.33;8.53;;;19.10;99.90;;;;;;5018748;28;21793;-73
2022/05/03 09:27:19;;;;;;;10.20;8.57;;;19.20;99.90;;;;;;5015189;28;20424;-73
2022/05/03 09:30:09;;;;;;;11.90;9.70;;;19.30;99.90;;;;;;5014251;28;20474;-72
2022/05/03 09:32:43;;;;;;;9.77;8.67;;;19.30;99.90;;;;;;5014043;28;20537;-73
2022/05/03 09:35:34;;;;;;;11.57;10.47;;;19.30;99.90;;;;;;5025594;28;20489;-74
2022/05/03 09:38:03;;;;;;;13.47;11.20;;;19.50;99.90;;;;;;5013299;28;20451;-73
2022/05/03 09:40:34;;;;;;;9.80;8.80;;;19.50;99.90;;;;;;5013047;28;20852;-73
2022/05/03 09:43:00;;;;;;;10.13;8.63;;;19.40;99.90;;;;;;5017597;28;20502;-74
2022/05/03 09:45:26;;;;;;;10.20;9.20;;;19.60;99.90;;;;;;5016280;28;20463;-73
2022/05/03 09:48:00;;;;;;;11.10;10.10;;;19.60;99.90;;;;;;5013813;28;20216;-73
2022/05/03 09:50:40;;;;;;;12.33;11.03;;;19.60;99.90;;;;;;5012352;28;20557;-72
2022/05/03 09:53:09;;;;;;;9.87;8.97;;;19.60;99.90;;;;;;5011114;28;20443;-73
2022/05/03 09:55:39;;;;;;;10.80;9.80;;;19.70;99.90;;;;;;5015841;28;20423;-73
2022/05/03 09:58:06;;;;;;;10.93;9.87;;;19.70;99.90;;;;;;5013427;28;20435;-74
2022/05/03 10:00:34;;;;;;;9.97;8.97;;;19.70;99.90;;;;;;5025277;28;20490;-74
2022/05/03 10:03:03;;;;;;;10.13;9.13;;;19.70;99.90;;;;;;5016047;28;20838;-73
2022/05/03 10:05:30;;;;;;;10.33;9.33;;;19.70;99.90;;;;;;5014744;28;20503;-73
2022/05/03 10:07:59;;;;;;;9.37;8.47;;;19.70;99.90;;;;;;5013385;28;20488;-72
2022/05/03 10:10:26;;;;;;;9.70;8.37;;;19.70;99.90;;;;;;5011855;28;20726;-72
2022/05/03 10:12:54;;;;;;;10.97;8.00;;;19.70;99.90;;;;;;5012905;28;20452;-74
2022/05/03 10:21:03;;;;;;;8.93;8.23;;;20.10;99.90;;;;;;5014264;28;20423;-73
2022/05/03 10:23:33;;;;;;;7.73;7.03;;;20.10;99.90;;;;;;5017220;28;20447;-73
2022/05/03 10:26:01;;;;;;;8.37;7.60;;;20.10;99.90;;;;;;5017751;28;20428;-73
2022/05/03 10:29:08;;;;;;;9.00;8.10;;;20.10;99.90;;;;;;5020101;28;20468;-73
2022/05/03 10:31:56;;;;;;;8.33;7.50;;;20.20;99.90;;;;;;5015723;28;20430;-73
2022/05/03 10:34:46;;;;;;;7.03;6.33;;;20.20;99.90;;;;;;5019929;28;20465;-73
2022/05/03 10:37:12;;;;;;;5.57;5.07;;;20.30;99.90;;;;;;5018930;28;20523;-73
2022/05/03 10:39:46;;;;;;;5.57;5.10;;;20.40;99.90;;;;;;5019132;28;20949;-72
2022/05/03 10:42:14;;;;;;;6.77;5.60;;;20.40;99.90;;;;;;5015067;28;20504;-72
2022/05/03 10:44:52;;;;;;;7.00;6.30;;;20.50;99.90;;;;;;5015677;28;20456;-73
2022/05/03 10:47:39;;;;;;;6.70;6.10;;;20.50;99.90;;;;;;5014000;28;20426;-73
2022/05/03 10:50:11;;;;;;;6.97;5.40;;;20.60;99.90;;;;;;5014892;28;20446;-72
2022/05/03 10:52:37;;;;;;;7.20;5.87;;;20.70;99.90;;;;;;5015780;28;20512;-73
2022/05/03 10:55:07;;;;;;;6.43;5.57;;;20.70;99.90;;;;;;5012995;28;20446;-73
2022/05/03 10:57:53;;;;;;;6.10;5.00;;;20.70;99.90;;;;;;5016547;28;20589;-74
2022/05/03 11:00:57;;;;;;;5.90;5.30;;;20.70;99.90;;;;;;5016608;28;20547;-73
2022/05/03 11:03:23;;;;;;;8.33;5.70;;;20.80;99.90;;;;;;5013813;28;21035;-73
2022/05/03 11:06:19;;;;;;;5.50;5.10;;;20.90;99.90;;;;;;5012088;28;20443;-73
2022/05/03 11:08:58;;;;;;;6.13;5.57;;;21.00;99.90;;;;;;5018994;28;20294;-75
2022/05/03 11:11:42;;;;;;;5.27;4.87;;;21.10;99.90;;;;;;5013647;28;20416;-73
2022/05/03 11:14:18;;;;;;;5.17;4.67;;;21.20;99.90;;;;;;5033684;28;20451;-73
2022/05/03 11:16:48;;;;;;;5.40;4.90;;;21.20;99.90;;;;;;5034462;28;21044;-74
2022/05/03 11:19:17;;;;;;;5.87;5.37;;;21.30;99.90;;;;;;5018246;28;20435;-73
2022/05/03 11:21:47;;;;;;;6.33;5.80;;;21.30;99.90;;;;;;5019359;28;20440;-73
2022/05/03 11:24:30;;;;;;;6.90;5.90;;;21.40;99.90;;;;;;5015741;28;20534;-74
2022/05/03 11:27:01;;;;;;;5.97;5.47;;;21.50;99.90;;;;;;5022221;28;20457;-74
2022/05/03 11:29:38;;;;;;;5.43;4.93;;;21.60;99.90;;;;;;5012553;28;20485;-73
2022/05/03 11:32:08;;;;;;;5.33;4.83;;;21.60;99.90;;;;;;5015276;28;20576;-73
2022/05/03 11:34:38;;;;;;;6.83;5.53;;;21.60;99.90;;;;;;5024167;28;20558;-73
2022/05/03 11:37:04;;;;;;;4.60;4.23;;;21.70;99.90;;;;;;5020504;28;20419;-73
2022/05/03 11:39:30;;;;;;;4.93;4.53;;;21.80;99.90;;;;;;5019911;28;20449;-73
2022/05/03 11:41:56;;;;;;;4.30;4.00;;;21.90;99.90;;;;;;5018643;28;20443;-73
2022/05/03 11:44:23;;;;;;;5.37;4.67;;;22.00;99.90;;;;;;5021564;28;21037;-74
2022/05/03 11:46:49;;;;;;;4.50;4.10;;;22.20;99.90;;;;;;5031207;28;20438;-74
2022/05/03 11:49:18;;;;;;;5.50;5.00;;;22.00;99.90;;;;;;5030812;28;20459;-74
2022/05/03 11:57:23;;;;;;;5.10;4.70;;;22.50;99.90;;;;;;5016046;28;20442;-74
2022/05/03 11:59:58;;;;;;;5.63;4.83;;;22.70;99.90;;;;;;5027975;28;20488;-74
2022/05/03 12:02:43;;;;;;;5.93;4.20;;;22.90;99.90;;;;;;5017313;28;20744;-74
2022/05/03 12:05:18;;;;;;;6.73;5.67;;;23.30;99.90;;;;;;5016903;28;21090;-73
2022/05/03 12:07:56;;;;;;;4.93;4.53;;;23.60;99.90;;;;;;5012348;28;20608;-73
2022/05/03 12:10:29;;;;;;;6.90;6.13;;;24.00;99.90;;;;;;5016231;28;20428;-73
2022/05/03 12:13:12;;;;;;;5.30;4.90;;;24.20;98.40;;;;;;5015066;28;20482;-72
2022/05/03 12:15:42;;;;;;;5.50;5.00;;;24.30;98.20;;;;;;5011618;28;20428;-74
2022/05/03 12:18:13;;;;;;;4.67;4.27;;;24.30;96.60;;;;;;5017101;28;20440;-73
2022/05/03 12:20:53;;;;;;;5.30;4.90;;;24.20;96.00;;;;;;5016221;28;21034;-74
2022/05/03 12:23:23;;;;;;;4.90;4.50;;;24.00;95.70;;;;;;5016254;28;20463;-74
2022/05/03 12:25:54;;;;;;;4.93;4.50;;;24.00;95.30;;;;;;5016557;28;20435;-74
2022/05/03 12:28:21;;;;;;;4.77;4.37;;;24.00;92.90;;;;;;5015611;28;20476;-74
2022/05/03 12:30:57;;;;;;;4.67;4.27;;;24.00;92.50;;;;;;5016339;28;20479;-73
2022/05/03 12:33:27;;;;;;;5.13;4.63;;;24.10;92.40;;;;;;5013087;28;20455;-74
2022/05/03 12:35:53;;;;;;;5.20;4.70;;;24.40;93.00;;;;;;5013837;28;20452;-73
2022/05/03 12:38:21;;;;;;;4.70;4.30;;;24.40;92.30;;;;;;5011488;28;20548;-74
2022/05/03 12:40:55;;;;;;;5.27;4.80;;;24.20;92.90;;;;;;5015425;28;20191;-73
2022/05/03 12:43:29;;;;;;;6.90;4.57;;;24.10;92.50;;;;;;5011443;28;20485;-75
2022/05/03 12:45:58;;;;;;;4.80;4.40;;;23.90;92.10;;;;;;5009761;28;20961;-74
2022/05/03 12:48:23;;;;;;;7.00;4.90;;;23.90;92.70;;;;;;5012578;28;20455;-73
2022/05/03 12:50:49;;;;;;;5.10;4.67;;;23.90;91.50;;;;;;5029102;28;20424;-73
2022/05/03 12:53:15;;;;;;;4.47;4.07;;;24.10;92.20;;;;;;5012498;28;20228;-73
2022/05/03 12:55:41;;;;;;;5.47;4.90;;;24.20;91.30;;;;;;5010343;28;20209;-73
2022/05/03 12:58:22;;;;;;;4.73;4.33;;;24.20;91.30;;;;;;5014388;28;20427;-73
2022/05/03 13:00:50;;;;;;;5.67;5.07;;;24.30;91.50;;;;;;5029338;28;20236;-73
2022/05/03 13:03:17;;;;;;;6.00;5.50;;;24.50;91.50;;;;;;5011936;28;21155;-74
2022/05/03 13:05:42;;;;;;;7.80;7.07;;;24.70;90.40;;;;;;5010556;28;20878;-74
2022/05/03 13:08:08;;;;;;;7.27;6.60;;;24.70;91.30;;;;;;5014152;28;20509;-73
2022/05/03 13:10:34;;;;;;;9.30;8.50;;;24.90;92.40;;;;;;5012791;28;20188;-74
2022/05/03 13:13:02;;;;;;;8.67;7.87;;;24.80;92.80;;;;;;5014588;28;20205;-73
2022/05/03 13:15:27;;;;;;;8.40;7.60;;;24.40;93.70;;;;;;5012944;28;20184;-74
2022/05/03 13:17:53;;;;;;;7.80;7.10;;;24.50;92.90;;;;;;5013969;28;20459;-73
2022/05/03 13:20:20;;;;;;;8.47;7.77;;;24.70;93.00;;;;;;5018013;28;20200;-73
2022/05/03 13:22:46;;;;;;;7.90;7.20;;;24.70;93.10;;;;;;5012243;28;20721;-73
2022/05/03 13:25:11;;;;;;;10.43;8.30;;;24.60;93.40;;;;;;5015378;28;20435;-74